createdAt,value
2019-01-18T00:00:42.145Z,2.50
2019-01-18T00:03:09.198Z,2.40
2019-01-18T00:05:36.482Z,2.40
2019-01-18T00:08:04.656Z,2.30
2019-01-18T00:10:31.578Z,2.20
2019-01-18T00:12:58.478Z,2.20
2019-01-18T00:15:26.652Z,2.30
2019-01-18T00:17:53.456Z,2.30
2019-01-18T00:20:20.629Z,2.20
2019-01-18T00:22:47.659Z,2.30
2019-01-18T00:25:14.935Z,2.40
2019-01-18T00:27:41.750Z,2.40
2019-01-18T00:30:08.819Z,2.40
2019-01-18T00:32:35.886Z,2.40
2019-01-18T00:35:03.451Z,2.50
2019-01-18T00:37:30.745Z,2.30
2019-01-18T00:39:57.545Z,2.30
2019-01-18T00:42:24.376Z,2.40
2019-01-18T00:44:51.175Z,2.30
2019-01-18T00:47:18.085Z,2.20
2019-01-18T00:49:45.101Z,2.20
2019-01-18T00:52:11.907Z,2.30
2019-01-18T00:54:38.710Z,2.20
2019-01-18T00:57:05.626Z,2.20
2019-01-18T00:59:36.318Z,2.20
2019-01-18T01:02:01.261Z,2.30
2019-01-18T01:04:28.530Z,2.30
2019-01-18T01:06:55.361Z,2.30
2019-01-18T01:09:22.362Z,2.30
2019-01-18T01:11:49.444Z,2.30
2019-01-18T01:14:16.332Z,2.20
2019-01-18T01:16:43.233Z,2.10
2019-01-18T01:19:10.268Z,2.10
2019-01-18T01:21:37.527Z,2.20
2019-01-18T01:24:04.542Z,2.20
2019-01-18T01:26:31.811Z,2.20
2019-01-18T01:28:58.714Z,2.30
2019-01-18T01:31:25.989Z,2.30
2019-01-18T01:33:53.249Z,2.30
2019-01-18T01:36:20.641Z,2.10
2019-01-18T01:38:47.934Z,2.00
2019-01-18T01:41:14.834Z,2.10
2019-01-18T01:43:41.748Z,2.10
2019-01-18T01:46:08.649Z,2.10
2019-01-18T01:48:35.810Z,2.10
2019-01-18T01:51:02.916Z,2.10
2019-01-18T01:53:29.869Z,2.10
2019-01-18T01:55:57.013Z,2.00
2019-01-18T01:58:23.930Z,2.10
2019-01-18T02:00:50.851Z,2.00
2019-01-18T02:03:18.149Z,2.00
2019-01-18T02:05:45.057Z,2.00
2019-01-18T02:08:11.974Z,2.00
2019-01-18T02:10:39.117Z,2.10
2019-01-18T02:13:06.273Z,2.20
2019-01-18T02:15:33.203Z,2.10
2019-01-18T02:18:00.078Z,2.10
2019-01-18T02:20:27.108Z,2.20
2019-01-18T02:22:54.352Z,2.10
2019-01-18T02:25:21.434Z,2.20
2019-01-18T02:27:48.689Z,2.10
2019-01-18T02:30:18.357Z,2.10
2019-01-18T02:32:45.468Z,2.00
2019-01-18T02:35:13.038Z,2.00
2019-01-18T02:37:40.309Z,2.00
2019-01-18T02:40:07.944Z,2.00
2019-01-18T02:42:35.000Z,2.00
2019-01-18T02:45:02.040Z,2.00
2019-01-18T02:47:28.928Z,1.90
2019-01-18T02:49:55.755Z,1.80
2019-01-18T02:52:22.553Z,1.80
2019-01-18T02:54:49.370Z,1.80
2019-01-18T02:57:16.169Z,1.80
2019-01-18T02:59:42.982Z,1.90
2019-01-18T03:02:09.889Z,1.90
2019-01-18T03:04:36.901Z,1.90
2019-01-18T03:07:03.809Z,1.90
2019-01-18T03:09:30.743Z,1.90
2019-01-18T03:11:57.997Z,1.90
2019-01-18T03:14:26.133Z,1.80
2019-01-18T03:16:53.170Z,1.80
2019-01-18T03:19:20.242Z,1.80
2019-01-18T03:21:47.211Z,1.70
2019-01-18T03:24:14.109Z,1.80
2019-01-18T03:26:42.061Z,1.70
2019-01-18T03:29:09.073Z,1.80
2019-01-18T03:31:35.887Z,1.80
2019-01-18T03:34:02.789Z,1.80
2019-01-18T03:36:29.598Z,1.80
2019-01-18T03:38:56.774Z,1.80
2019-01-18T03:41:23.834Z,1.80
2019-01-18T03:43:50.841Z,1.80
2019-01-18T03:46:17.862Z,1.70
2019-01-18T03:48:44.961Z,1.70
2019-01-18T03:51:11.873Z,1.80
2019-01-18T03:53:38.877Z,1.80
2019-01-18T03:56:05.894Z,1.80
2019-01-18T03:58:32.973Z,1.80
2019-01-18T04:00:59.889Z,2.00
2019-01-18T04:03:26.689Z,1.90
2019-01-18T04:05:53.500Z,1.80
2019-01-18T04:08:20.777Z,1.70
2019-01-18T04:10:48.205Z,1.80
2019-01-18T04:13:15.023Z,1.80
2019-01-18T04:15:42.179Z,1.70
2019-01-18T04:18:09.081Z,1.70
2019-01-18T04:20:35.994Z,1.60
2019-01-18T04:23:03.009Z,1.70
2019-01-18T04:25:31.525Z,1.70
2019-01-18T04:27:58.590Z,1.60
2019-01-18T04:30:33.043Z,1.70
2019-01-18T04:32:54.318Z,1.70
2019-01-18T04:35:21.312Z,1.70
2019-01-18T04:37:48.150Z,1.70
2019-01-18T04:40:17.574Z,1.60
2019-01-18T04:42:44.593Z,1.70
2019-01-18T04:45:11.733Z,1.70
2019-01-18T04:47:39.002Z,1.70
2019-01-18T04:50:08.784Z,1.70
2019-01-18T04:52:36.004Z,1.70
2019-01-18T04:55:04.220Z,1.60
2019-01-18T04:57:31.320Z,1.60
2019-01-18T04:59:58.138Z,1.70
2019-01-18T05:02:25.156Z,1.60
2019-01-18T05:04:52.014Z,1.80
2019-01-18T05:07:19.198Z,1.70
2019-01-18T05:09:46.386Z,1.70
2019-01-18T05:12:13.562Z,1.60
2019-01-18T05:14:40.606Z,1.60
2019-01-18T05:17:07.778Z,1.50
2019-01-18T05:19:34.596Z,1.50
2019-01-18T05:22:01.521Z,1.40
2019-01-18T05:24:28.593Z,1.40
2019-01-18T05:26:55.522Z,1.50
2019-01-18T05:29:22.433Z,1.50
2019-01-18T05:31:49.338Z,1.50
2019-01-18T05:34:16.153Z,1.50
2019-01-18T05:36:43.103Z,1.40
2019-01-18T05:39:10.155Z,1.40
2019-01-18T05:41:37.218Z,1.40
2019-01-18T05:44:04.498Z,1.40
2019-01-18T05:46:31.419Z,1.40
2019-01-18T05:48:58.589Z,1.30
2019-01-18T05:51:25.403Z,1.30
2019-01-18T05:53:52.310Z,1.40
2019-01-18T05:56:19.122Z,1.40
2019-01-18T05:58:46.182Z,1.40
2019-01-18T06:01:14.525Z,1.40
2019-01-18T06:03:41.429Z,1.40
2019-01-18T06:06:08.426Z,1.50
2019-01-18T06:08:35.366Z,1.40
2019-01-18T06:11:02.305Z,1.40
2019-01-18T06:13:29.114Z,1.50
2019-01-18T06:15:56.032Z,1.50
2019-01-18T06:18:23.188Z,1.40
2019-01-18T06:20:50.017Z,1.40
2019-01-18T06:23:17.018Z,1.30
2019-01-18T06:25:44.174Z,1.30
2019-01-18T06:28:10.993Z,1.30
2019-01-18T06:30:38.014Z,1.30
2019-01-18T06:33:05.347Z,1.20
2019-01-18T06:35:32.355Z,1.20
2019-01-18T06:37:59.517Z,1.20
2019-01-18T06:40:26.534Z,1.10
2019-01-18T06:42:53.555Z,1.00
2019-01-18T06:45:21.165Z,1.10
2019-01-18T06:47:48.184Z,1.10
2019-01-18T06:50:16.346Z,1.00
2019-01-18T06:52:43.513Z,0.90
2019-01-18T06:55:10.641Z,0.90
2019-01-18T06:57:37.801Z,0.80
2019-01-18T07:00:09.137Z,0.80
2019-01-18T07:02:36.148Z,0.80
2019-01-18T07:05:03.982Z,0.80
2019-01-18T07:07:30.889Z,0.70
2019-01-18T07:09:58.161Z,0.70
2019-01-18T07:12:24.956Z,0.70
2019-01-18T07:14:51.978Z,0.70
2019-01-18T07:17:18.986Z,0.70
2019-01-18T07:19:46.181Z,0.80
2019-01-18T07:22:13.354Z,0.80
2019-01-18T07:24:40.270Z,0.80
2019-01-18T07:27:07.177Z,0.80
2019-01-18T07:29:34.098Z,0.80
2019-01-18T07:32:00.997Z,0.90
2019-01-18T07:34:27.918Z,1.00
2019-01-18T07:36:54.975Z,0.90
2019-01-18T07:39:22.502Z,1.00
2019-01-18T07:41:49.481Z,1.00
2019-01-18T07:44:16.499Z,1.10
2019-01-18T07:46:43.445Z,1.00
2019-01-18T07:49:10.509Z,1.10
2019-01-18T07:51:37.341Z,1.20
2019-01-18T07:54:04.357Z,1.20
2019-01-18T07:56:31.266Z,1.30
2019-01-18T07:58:58.188Z,1.40
2019-01-18T08:01:25.098Z,1.40
2019-01-18T08:03:52.134Z,1.40
2019-01-18T08:06:19.057Z,1.30
2019-01-18T08:08:45.953Z,1.40
2019-01-18T08:11:12.864Z,1.30
2019-01-18T08:13:40.208Z,1.40
2019-01-18T08:16:07.131Z,1.40
2019-01-18T08:18:34.205Z,1.30
2019-01-18T08:21:01.384Z,1.40
2019-01-18T08:23:28.181Z,1.30
2019-01-18T08:25:55.102Z,1.30
2019-01-18T08:28:21.996Z,1.20
2019-01-18T08:30:48.807Z,1.20
2019-01-18T08:33:15.970Z,1.10
2019-01-18T08:35:42.876Z,1.10
2019-01-18T08:38:09.678Z,0.80
2019-01-18T08:40:38.397Z,0.80
2019-01-18T08:43:07.469Z,0.80
2019-01-18T08:45:40.446Z,0.90
2019-01-18T08:48:07.783Z,0.90
2019-01-18T08:50:34.796Z,1.00
2019-01-18T08:53:01.821Z,1.00
2019-01-18T08:55:29.134Z,1.10
2019-01-18T08:57:56.138Z,1.20
2019-01-18T09:00:24.054Z,1.20
2019-01-18T09:02:51.069Z,1.30
2019-01-18T09:05:20.896Z,1.30
2019-01-18T09:07:47.806Z,1.20
2019-01-18T09:10:15.990Z,1.20
2019-01-18T09:12:42.900Z,1.20
2019-01-18T09:15:10.375Z,1.30
2019-01-18T09:17:37.724Z,1.30
2019-01-18T09:20:07.469Z,1.40
2019-01-18T09:22:34.402Z,1.50
2019-01-18T09:25:01.300Z,1.60
2019-01-18T09:27:28.312Z,1.70
2019-01-18T09:29:55.110Z,1.70
2019-01-18T09:32:22.224Z,1.80
2019-01-18T09:34:49.034Z,1.70
2019-01-18T09:37:16.100Z,1.80
2019-01-18T09:39:42.992Z,1.80
2019-01-18T09:42:09.914Z,1.90
2019-01-18T09:44:36.818Z,1.90
2019-01-18T09:47:03.817Z,1.80
2019-01-18T09:49:30.714Z,2.00
2019-01-18T09:51:57.966Z,2.10
2019-01-18T09:54:24.785Z,2.10
2019-01-18T09:56:51.595Z,2.10
2019-01-18T09:59:18.653Z,2.10
2019-01-18T10:01:49.305Z,2.10
2019-01-18T10:04:14.574Z,2.00
2019-01-18T10:06:41.473Z,2.10
2019-01-18T10:09:08.786Z,2.10
2019-01-18T10:11:35.738Z,2.10
2019-01-18T10:14:03.088Z,2.10
2019-01-18T10:16:30.982Z,2.10
2019-01-18T10:18:57.801Z,1.90
2019-01-18T10:21:24.717Z,2.00
2019-01-18T10:23:51.845Z,2.10
2019-01-18T10:26:19.118Z,2.20
2019-01-18T10:28:46.315Z,2.30
2019-01-18T10:31:13.153Z,2.30
2019-01-18T10:33:40.057Z,2.40
2019-01-18T10:36:07.062Z,2.30
2019-01-18T10:38:33.878Z,2.30
2019-01-18T10:41:00.803Z,2.30
2019-01-18T10:43:27.729Z,2.40
2019-01-18T10:45:54.623Z,2.50
2019-01-18T10:48:21.714Z,2.60
2019-01-18T10:50:48.705Z,2.60
2019-01-18T10:53:15.703Z,2.60
2019-01-18T10:55:42.522Z,2.60
2019-01-18T10:58:09.516Z,2.70
2019-01-18T11:00:36.804Z,2.70
2019-01-18T11:03:04.318Z,2.70
2019-01-18T11:05:31.620Z,2.70
2019-01-18T11:07:58.641Z,2.80
2019-01-18T11:10:25.561Z,2.70
2019-01-18T11:12:52.561Z,2.40
2019-01-18T11:15:21.581Z,2.30
2019-01-18T11:17:48.588Z,2.30
2019-01-18T11:20:18.715Z,2.40
2019-01-18T11:22:46.056Z,2.40
2019-01-18T11:25:14.446Z,2.50
2019-01-18T11:27:41.718Z,2.50
2019-01-18T11:30:12.221Z,2.50
2019-01-18T11:32:39.402Z,2.60
2019-01-18T11:35:06.434Z,2.70
2019-01-18T11:37:33.422Z,2.80
2019-01-18T11:40:00.516Z,2.80
2019-01-18T11:42:27.797Z,2.90
2019-01-18T11:44:54.601Z,3.00
2019-01-18T11:47:22.145Z,3.00
2019-01-18T11:49:48.954Z,3.10
2019-01-18T11:52:15.965Z,3.10
2019-01-18T11:54:44.041Z,3.20
2019-01-18T11:57:11.086Z,3.20
2019-01-18T11:59:37.989Z,3.20
2019-01-18T12:02:05.204Z,3.20
2019-01-18T12:04:32.339Z,3.20
2019-01-18T12:06:59.148Z,3.10
2019-01-18T12:09:26.052Z,3.20
2019-01-18T12:11:53.118Z,3.10
2019-01-18T12:14:20.013Z,3.10
2019-01-18T12:16:46.936Z,3.10
2019-01-18T12:19:14.189Z,3.10
2019-01-18T12:21:41.213Z,3.10
2019-01-18T12:24:08.112Z,3.20
2019-01-18T12:26:34.917Z,3.00
2019-01-18T12:29:01.843Z,2.90
2019-01-18T12:31:28.850Z,3.00
2019-01-18T12:33:55.670Z,3.00
2019-01-18T12:36:22.662Z,2.80
2019-01-18T12:38:49.689Z,2.70
2019-01-18T12:41:17.448Z,2.70
2019-01-18T12:43:44.584Z,2.60
2019-01-18T12:46:11.385Z,2.60
2019-01-18T12:48:38.613Z,2.70
2019-01-18T12:51:05.656Z,2.70
2019-01-18T12:53:32.467Z,2.60
2019-01-18T12:55:59.278Z,2.60
2019-01-18T12:58:26.512Z,2.60
2019-01-18T13:00:53.964Z,2.40
2019-01-18T13:03:20.984Z,2.50
2019-01-18T13:05:49.930Z,2.60
2019-01-18T13:08:16.941Z,2.60
2019-01-18T13:10:43.952Z,2.70
2019-01-18T13:13:11.236Z,2.90
2019-01-18T13:15:59.254Z,3.00
2019-01-18T13:18:26.066Z,3.10
2019-01-18T13:20:53.146Z,3.20
2019-01-18T13:23:20.069Z,3.30
2019-01-18T13:25:47.069Z,3.40
2019-01-18T13:28:13.996Z,3.40
2019-01-18T13:30:40.899Z,3.50
2019-01-18T13:33:08.244Z,3.60
2019-01-18T13:35:35.403Z,3.50
2019-01-18T13:38:02.305Z,3.60
2019-01-18T13:40:29.214Z,3.50
2019-01-18T13:42:56.108Z,3.50
2019-01-18T13:45:24.423Z,3.50
2019-01-18T13:47:51.620Z,3.50
2019-01-18T13:50:18.656Z,3.40
2019-01-18T13:52:45.757Z,3.40
2019-01-18T13:55:16.002Z,3.50
2019-01-18T13:57:42.912Z,3.50
2019-01-18T14:00:10.930Z,3.50
2019-01-18T14:02:40.599Z,3.50
2019-01-18T14:05:08.209Z,3.40
2019-01-18T14:07:35.361Z,3.50
2019-01-18T14:10:03.128Z,3.50
2019-01-18T14:12:30.294Z,3.50
2019-01-18T14:14:57.569Z,3.40
2019-01-18T14:17:24.369Z,3.40
2019-01-18T14:19:51.201Z,3.40
2019-01-18T14:22:18.273Z,3.30
2019-01-18T14:24:45.453Z,3.20
2019-01-18T14:27:12.369Z,3.30
2019-01-18T14:29:39.623Z,3.40
2019-01-18T14:32:06.673Z,3.40
2019-01-18T14:34:33.987Z,3.30
2019-01-18T14:37:00.910Z,3.20
2019-01-18T14:39:27.974Z,3.10
2019-01-18T14:41:54.925Z,3.20
2019-01-18T14:44:22.867Z,3.10
2019-01-18T14:46:49.965Z,3.10
2019-01-18T14:49:16.963Z,3.10
2019-01-18T14:51:44.020Z,3.20
2019-01-18T14:54:11.274Z,3.20
2019-01-18T14:56:38.365Z,3.20
2019-01-18T14:59:05.648Z,3.20
2019-01-18T15:01:32.550Z,3.20
2019-01-18T15:03:59.729Z,3.20
2019-01-18T15:06:26.763Z,3.10
2019-01-18T15:08:54.306Z,3.10
2019-01-18T15:11:21.435Z,3.00
2019-01-18T15:13:48.733Z,3.00
2019-01-18T15:16:15.545Z,2.80
2019-01-18T15:18:42.477Z,2.60
2019-01-18T15:21:09.436Z,2.40
2019-01-18T15:23:36.561Z,2.50
2019-01-18T15:26:03.818Z,2.60
2019-01-18T15:28:30.985Z,2.50
2019-01-18T15:30:57.998Z,2.30
2019-01-18T15:33:24.998Z,2.20
2019-01-18T15:35:52.798Z,2.30
2019-01-18T15:38:19.640Z,2.50
2019-01-18T15:40:47.868Z,2.70
2019-01-18T15:43:17.565Z,2.80
2019-01-18T15:45:44.561Z,2.90
2019-01-18T15:48:11.851Z,2.90
2019-01-18T15:50:39.453Z,2.80
2019-01-18T15:53:06.836Z,2.80
2019-01-18T15:55:34.304Z,2.90
2019-01-18T15:58:01.930Z,2.90
2019-01-18T16:00:31.416Z,2.80
2019-01-18T16:02:58.674Z,2.50
2019-01-18T16:05:26.065Z,2.40
2019-01-18T16:07:53.340Z,2.50
2019-01-18T16:10:20.558Z,2.60
2019-01-18T16:12:48.184Z,2.50
2019-01-18T16:15:16.201Z,2.50
2019-01-18T16:17:44.352Z,2.60
2019-01-18T16:20:13.793Z,2.60
2019-01-18T16:22:41.003Z,2.30
2019-01-18T16:25:11.783Z,2.10
2019-01-18T16:27:38.689Z,2.20
2019-01-18T16:30:08.838Z,2.30
2019-01-18T16:32:35.898Z,2.30
2019-01-18T16:35:03.568Z,2.20
2019-01-18T16:37:30.726Z,2.20
2019-01-18T16:39:57.890Z,2.10
2019-01-18T16:42:24.680Z,1.90
2019-01-18T16:44:51.826Z,2.00
2019-01-18T16:47:18.889Z,2.10
2019-01-18T16:49:46.348Z,1.80
2019-01-18T16:52:13.133Z,1.70
2019-01-18T16:54:40.176Z,1.80
2019-01-18T16:57:07.053Z,2.00
2019-01-18T16:59:34.081Z,1.80
2019-01-18T17:02:00.888Z,1.80
2019-01-18T17:04:27.790Z,1.90
2019-01-18T17:06:54.801Z,1.70
2019-01-18T17:09:21.602Z,1.30
2019-01-18T17:11:49.194Z,1.20
2019-01-18T17:14:16.415Z,1.20
2019-01-18T17:16:44.993Z,1.10
2019-01-18T17:19:12.172Z,0.90
2019-01-18T17:21:39.560Z,0.80
2019-01-18T17:24:06.602Z,0.90
2019-01-18T17:26:33.854Z,1.00
2019-01-18T17:29:01.868Z,1.20
2019-01-18T17:31:29.110Z,1.10
2019-01-18T17:33:56.117Z,1.10
2019-01-18T17:36:48.634Z,0.90
2019-01-18T17:39:31.102Z,0.80
2019-01-18T17:42:40.476Z,0.80
2019-01-18T17:45:45.094Z,0.90
2019-01-18T17:49:15.117Z,0.90
2019-01-18T17:52:09.125Z,0.90
2019-01-18T17:55:04.629Z,1.00
2019-01-18T17:58:04.735Z,1.10
2019-01-18T18:01:20.062Z,1.20
2019-01-18T18:04:00.616Z,1.40
2019-01-18T18:06:59.027Z,1.50
2019-01-18T18:09:32.518Z,1.30
2019-01-18T18:12:50.817Z,1.40
2019-01-18T18:15:33.510Z,1.50
2019-01-18T18:18:18.790Z,1.50
2019-01-18T18:21:26.182Z,1.30
2019-01-18T18:24:23.317Z,1.50
2019-01-18T18:27:16.984Z,1.50
2019-01-18T18:30:15.818Z,1.60
2019-01-18T18:33:23.669Z,1.50
2019-01-18T18:36:05.825Z,1.20
2019-01-18T18:39:30.288Z,1.20
2019-01-18T18:42:32.609Z,1.00
2019-01-18T18:45:43.009Z,0.70
2019-01-18T18:48:41.556Z,0.60
2019-01-18T18:51:52.098Z,0.40
2019-01-18T18:55:00.958Z,0.50
2019-01-18T18:58:13.042Z,0.50
2019-01-18T19:01:22.004Z,0.50
2019-01-18T19:04:21.810Z,0.50
2019-01-18T19:07:23.036Z,0.30
2019-01-18T19:10:28.138Z,0.40
2019-01-18T19:13:31.132Z,0.30
2019-01-18T19:16:33.175Z,0.30
2019-01-18T19:19:36.390Z,0.40
2019-01-18T19:22:50.226Z,0.50
2019-01-18T19:25:35.757Z,0.50
2019-01-18T19:29:02.548Z,0.50
2019-01-18T19:32:04.985Z,0.40
2019-01-18T19:35:04.228Z,0.30
2019-01-18T19:38:15.201Z,0.30
2019-01-18T19:40:58.805Z,0.30
2019-01-18T19:44:12.840Z,0.30
2019-01-18T19:47:09.794Z,0.30
2019-01-18T19:50:10.125Z,0.30
2019-01-18T19:53:13.393Z,0.20
2019-01-18T19:56:04.726Z,0.30
2019-01-18T19:58:53.398Z,0.30
2019-01-18T20:01:33.922Z,0.20
2019-01-18T20:04:33.329Z,0.10
2019-01-18T20:07:38.040Z,0.00
2019-01-18T20:10:58.845Z,0.10
2019-01-18T20:13:38.566Z,0.20
2019-01-18T20:16:49.253Z,0.30
2019-01-18T20:19:25.860Z,0.20
2019-01-18T20:22:29.908Z,0.20
2019-01-18T20:25:40.290Z,0.10
2019-01-18T20:29:01.509Z,0.20
2019-01-18T20:31:56.004Z,0.30
2019-01-18T20:34:55.754Z,0.20
2019-01-18T20:37:50.757Z,0.20
2019-01-18T20:40:42.357Z,0.20
2019-01-18T20:43:22.896Z,0.20
2019-01-18T20:46:46.962Z,0.10
2019-01-18T20:50:13.726Z,0.00
2019-01-18T20:53:31.053Z,-0.10
2019-01-18T20:56:21.742Z,-0.10
2019-01-18T20:59:11.213Z,-0.10
2019-01-18T21:02:00.842Z,-0.10
2019-01-18T21:05:27.969Z,-0.10
2019-01-18T21:08:32.310Z,-0.10
2019-01-18T21:11:50.046Z,-0.20
2019-01-18T21:14:33.386Z,-0.20
2019-01-18T21:17:45.552Z,-0.20
2019-01-18T21:20:50.257Z,-0.30
2019-01-18T21:23:54.686Z,-0.20
2019-01-18T21:26:51.626Z,-0.30
2019-01-18T21:29:49.457Z,-0.40
2019-01-18T21:32:51.800Z,-0.40
2019-01-18T21:35:57.407Z,-0.40
2019-01-18T21:38:49.400Z,-0.30
2019-01-18T21:42:05.533Z,-0.50
2019-01-18T21:44:50.730Z,-0.50
2019-01-18T21:47:43.065Z,-0.60
2019-01-18T21:50:50.939Z,-0.60
2019-01-18T21:53:32.122Z,-0.60
2019-01-18T21:56:25.077Z,-0.60
2019-01-18T21:59:16.976Z,-0.60
2019-01-18T22:02:23.083Z,-0.70
2019-01-18T22:05:34.943Z,-0.70
2019-01-18T22:08:49.585Z,-0.80
2019-01-18T22:11:46.464Z,-0.90
2019-01-18T22:14:52.608Z,-1.00
2019-01-18T22:18:10.514Z,-1.00
2019-01-18T22:21:11.834Z,-1.20
2019-01-18T22:24:01.508Z,-1.20
2019-01-18T22:27:09.741Z,-1.10
2019-01-18T22:30:02.146Z,-1.10
2019-01-18T22:32:44.539Z,-1.10
2019-01-18T22:35:44.452Z,-1.00
2019-01-18T22:38:52.816Z,-0.90
2019-01-18T22:41:47.577Z,-1.00
2019-01-18T22:45:05.156Z,-1.10
2019-01-18T22:48:03.858Z,-1.00
2019-01-18T22:51:14.576Z,-1.10
2019-01-18T22:53:53.305Z,-1.10
2019-01-18T22:56:50.399Z,-1.20
2019-01-18T23:00:00.591Z,-1.30
2019-01-18T23:02:49.202Z,-1.40
2019-01-18T23:05:50.633Z,-1.40
2019-01-18T23:08:54.102Z,-1.30
2019-01-18T23:11:30.447Z,-1.20
2019-01-18T23:14:17.732Z,-1.20
2019-01-18T23:17:23.854Z,-1.20
2019-01-18T23:20:17.058Z,-1.10
2019-01-18T23:23:27.546Z,-1.10
2019-01-18T23:26:33.827Z,-1.20
2019-01-18T23:29:06.593Z,-1.30
2019-01-18T23:32:14.102Z,-1.30
2019-01-18T23:34:50.791Z,-1.40
2019-01-18T23:37:29.348Z,-1.30
2019-01-18T23:40:53.302Z,-1.40
2019-01-18T23:43:35.389Z,-1.50
2019-01-18T23:46:26.583Z,-1.50
2019-01-18T23:49:31.401Z,-1.50
2019-01-18T23:52:37.286Z,-1.30
2019-01-18T23:55:35.815Z,-1.20
2019-01-18T23:58:42.277Z,-1.20
